Time;durP1;ratioP1;P1;durP2;ratioP2;P2;SDS_P1;SDS_P2;PMS_P1;PMS_P2;Temp;Humidity;BMP_temperature;BMP_pressure;BME280_temperature;BME280_humidity;BME280_pressure;Samples;Min_cycle;Max_cycle;Signal;HPM_P1;HPM_P2
2023/02/10 00:01:34;;;;;;;43.90;23.75;;;;;;;1.82;100.00;102668.31;4966926;28;20046;-77
2023/02/10 00:04:00;;;;;;;47.17;22.40;;;;;;;1.69;100.00;102670.97;5004700;28;20052;-77
2023/02/10 00:06:28;;;;;;;46.85;22.63;;;;;;;1.55;100.00;102677.88;4988594;28;20049;-80
2023/02/10 00:08:58;;;;;;;46.88;23.02;;;;;;;1.47;100.00;102678.31;5005433;28;20038;-77
2023/02/10 00:14:06;;;;;;;47.92;23.40;;;;;;;1.47;100.00;102682.56;4985674;28;20058;-79
2023/02/10 00:16:32;;;;;;;49.00;23.75;;;;;;;1.53;100.00;102688.09;4994798;28;20051;-81
2023/02/10 00:19:05;;;;;;;52.28;26.88;;;;;;;1.59;100.00;102687.56;4972969;28;20432;-77
2023/02/10 00:21:32;;;;;;;51.73;27.30;;;;;;;1.59;100.00;102687.56;4979506;28;20050;-82
2023/02/10 00:23:59;;;;;;;48.38;24.15;;;;;;;1.62;100.00;102687.78;4990934;28;20332;-79
2023/02/10 00:26:26;;;;;;;52.45;24.10;;;;;;;1.61;100.00;102681.72;4983617;28;20353;-81
2023/02/10 00:28:53;;;;;;;51.65;26.08;;;;;;;1.63;100.00;102689.53;4980190;28;20080;-77
2023/02/10 00:31:21;;;;;;;52.47;25.00;;;;;;;1.64;100.00;102688.75;4987276;28;20554;-80
2023/02/10 00:33:47;;;;;;;44.45;24.48;;;;;;;1.66;100.00;102689.75;4999117;28;20042;-77
2023/02/10 00:36:16;;;;;;;42.85;22.48;;;;;;;1.68;100.00;102700.16;4988456;28;20050;-80
2023/02/10 00:38:43;;;;;;;43.45;22.02;;;;;;;1.71;100.00;102698.66;4991507;28;20477;-78
2023/02/10 00:41:16;;;;;;;44.00;22.58;;;;;;;1.74;100.00;102693.66;4988754;28;20497;-79
2023/02/10 00:43:44;;;;;;;42.28;23.27;;;;;;;1.75;100.00;102700.63;4986841;28;20493;-82
2023/02/10 00:46:14;;;;;;;41.20;23.33;;;;;;;1.78;100.00;102707.66;4989488;28;20077;-80
2023/02/10 00:48:41;;;;;;;44.58;23.17;;;;;;;1.76;100.00;102707.56;4984657;28;20164;-77
2023/02/10 00:51:09;;;;;;;36.95;20.40;;;;;;;1.79;100.00;102704.28;4983842;28;20065;-77
2023/02/10 00:53:36;;;;;;;43.42;22.45;;;;;;;1.78;100.00;102703.38;4975485;28;20054;-77
2023/02/10 00:56:03;;;;;;;41.75;21.85;;;;;;;1.79;100.00;102706.88;4986374;28;20045;-77
2023/02/10 00:58:29;;;;;;;43.88;23.52;;;;;;;1.80;100.00;102706.97;4971275;28;20124;-78
2023/02/10 01:00:56;;;;;;;54.25;25.27;;;;;;;1.82;100.00;102699.28;4987405;28;20038;-78
2023/02/10 01:03:24;;;;;;;44.92;22.65;;;;;;;1.83;100.00;102705.38;4989157;28;20051;-77
2023/02/10 01:05:51;;;;;;;40.45;21.42;;;;;;;1.81;100.00;102706.16;4969970;28;20054;-79
2023/02/10 01:08:18;;;;;;;51.28;24.35;;;;;;;1.83;100.00;102711.41;4991332;28;20420;-76
2023/02/10 01:10:44;;;;;;;46.60;23.63;;;;;;;1.83;100.00;102707.94;4987805;28;20694;-76
2023/02/10 01:13:13;;;;;;;44.80;22.42;;;;;;;1.83;100.00;102719.16;4984132;28;20039;-77
2023/02/10 01:15:46;;;;;;;49.03;24.38;;;;;;;1.86;100.00;102713.28;4986349;28;20103;-78
2023/02/10 01:18:14;;;;;;;49.57;23.47;;;;;;;1.87;100.00;102725.41;4992202;28;20133;-79
2023/02/10 01:20:41;;;;;;;47.35;25.42;;;;;;;1.85;100.00;102714.09;4985681;28;20418;-78
2023/02/10 01:23:09;;;;;;;46.33;23.02;;;;;;;1.85;100.00;102712.38;5001511;28;20073;-78
2023/02/10 01:25:36;;;;;;;41.50;20.98;;;;;;;1.85;100.00;102720.13;5017761;28;20065;-78
2023/02/10 01:28:04;;;;;;;43.38;22.58;;;;;;;1.85;100.00;102716.66;4995858;28;20050;-77
2023/02/10 01:30:31;;;;;;;44.58;23.30;;;;;;;1.88;100.00;102704.84;4995908;28;20096;-78
2023/02/10 01:32:58;;;;;;;41.03;21.58;;;;;;;1.88;100.00;102704.84;4985532;28;20050;-78
2023/02/10 01:35:25;;;;;;;38.20;21.48;;;;;;;1.87;100.00;102708.22;5004215;28;20075;-77
2023/02/10 01:37:52;;;;;;;37.88;20.35;;;;;;;1.86;100.00;102710.72;5001410;28;20045;-77
2023/02/10 01:40:21;;;;;;;45.15;21.73;;;;;;;1.85;100.00;102708.91;4997770;28;20125;-77
2023/02/10 01:42:48;;;;;;;38.92;21.30;;;;;;;1.84;100.00;102704.53;5011633;28;20412;-77
2023/02/10 01:45:36;;;;;;;45.38;22.40;;;;;;;1.82;100.00;102701.88;5011793;28;20132;-76
2023/02/10 01:48:04;;;;;;;44.20;21.88;;;;;;;1.76;100.00;102699.81;4998161;28;20042;-80
2023/02/10 01:51:01;;;;;;;45.63;23.10;;;;;;;1.66;100.00;102705.22;5010433;28;20137;-81
2023/02/10 01:53:29;;;;;;;37.83;20.85;;;;;;;1.51;100.00;102701.72;5013262;28;20655;-77
2023/02/10 01:55:59;;;;;;;43.00;23.30;;;;;;;1.27;100.00;102692.53;4988599;28;20042;-77
2023/02/10 01:58:29;;;;;;;42.80;24.60;;;;;;;1.21;100.00;102691.28;5002726;28;20573;-76
2023/02/10 02:00:55;;;;;;;47.72;23.75;;;;;;;1.15;100.00;102700.41;5001691;28;20133;-80
2023/02/10 02:03:21;;;;;;;44.78;21.80;;;;;;;1.05;100.00;102692.00;5002887;28;20046;-82
2023/02/10 02:05:48;;;;;;;46.63;23.48;;;;;;;1.01;100.00;102690.03;4998069;28;20081;-79
2023/02/10 02:08:20;;;;;;;50.03;25.67;;;;;;;1.15;100.00;102696.97;5003086;28;20076;-82
2023/02/10 02:11:22;;;;;;;50.83;26.55;;;;;;;1.27;100.00;102702.00;5004291;28;20046;-76
2023/02/10 02:14:03;;;;;;;50.97;24.38;;;;;;;1.39;100.00;102695.00;5011210;28;20049;-77
2023/02/10 02:16:51;;;;;;;49.92;25.88;;;;;;;1.54;100.00;102705.38;5002799;28;20057;-78
2023/02/10 02:23:26;;;;;;;42.65;22.80;;;;;;;1.63;100.00;102703.34;4988167;28;20109;-80
2023/02/10 02:26:26;;;;;;;46.08;22.38;;;;;;;1.66;100.00;102700.06;4969661;28;20509;-78
2023/02/10 02:29:50;;;;;;;45.30;22.55;;;;;;;1.72;100.00;102707.28;4970414;28;20051;-81
2023/02/10 02:32:22;;;;;;;44.25;22.70;;;;;;;1.74;100.00;102703.13;4971115;28;20059;-78
2023/02/10 02:34:57;;;;;;;46.83;22.13;;;;;;;1.75;100.00;102708.38;4976058;28;20046;-77
2023/02/10 02:37:32;;;;;;;43.85;23.65;;;;;;;1.77;100.00;102706.78;4973751;28;20042;-77
2023/02/10 02:39:59;;;;;;;51.40;21.88;;;;;;;1.78;100.00;102718.88;4978441;28;20109;-76
2023/02/10 02:42:31;;;;;;;44.15;22.42;;;;;;;1.82;100.00;102712.22;4973832;28;20043;-79
2023/02/10 02:45:19;;;;;;;41.60;22.80;;;;;;;1.86;100.00;102705.53;4955510;28;20063;-77
2023/02/10 02:48:09;;;;;;;41.92;20.98;;;;;;;1.87;100.00;102712.50;4971335;28;20042;-80
2023/02/10 02:51:32;;;;;;;34.00;19.50;;;;;;;1.86;100.00;102697.78;4974427;28;20117;-77
2023/02/10 02:54:25;;;;;;;43.50;19.67;;;;;;;1.88;100.00;102704.84;4973019;28;20053;-77
2023/02/10 02:57:11;;;;;;;45.20;20.60;;;;;;;1.87;100.00;102695.28;4965917;28;20041;-76
2023/02/10 02:59:51;;;;;;;39.20;20.77;;;;;;;1.88;100.00;102704.84;4975824;28;20058;-81
2023/02/10 03:02:20;;;;;;;39.80;21.08;;;;;;;1.92;100.00;102705.91;4992923;28;20046;-80
2023/02/10 03:04:48;;;;;;;39.97;19.00;;;;;;;1.91;100.00;102704.13;4963093;28;20058;-78
2023/02/10 03:07:15;;;;;;;31.10;15.75;;;;;;;1.93;100.00;102703.41;4972625;28;20055;-77
2023/02/10 03:09:42;;;;;;;33.63;17.50;;;;;;;1.97;100.00;102704.50;4975762;28;20055;-76
2023/02/10 03:12:09;;;;;;;34.10;17.33;;;;;;;2.00;100.00;102696.03;4986959;28;20046;-77
2023/02/10 03:14:35;;;;;;;33.10;16.08;;;;;;;2.07;100.00;102703.34;4970262;28;20440;-76
2023/02/10 03:17:02;;;;;;;32.28;17.70;;;;;;;2.06;100.00;102704.13;4969327;28;20105;-76
2023/02/10 03:19:28;;;;;;;33.45;18.33;;;;;;;2.09;100.00;102699.16;4973968;28;20057;-79
2023/02/10 03:21:55;;;;;;;31.63;16.42;;;;;;;2.10;100.00;102706.09;4983760;28;20042;-79
2023/02/10 03:24:21;;;;;;;35.28;17.60;;;;;;;2.15;100.00;102702.09;4985313;28;20054;-77
2023/02/10 03:26:47;;;;;;;33.45;16.92;;;;;;;2.15;100.00;102696.91;5005274;28;20047;-78
2023/02/10 03:29:15;;;;;;;33.35;16.73;;;;;;;2.17;100.00;102691.88;5000883;28;20134;-79
2023/02/10 03:31:41;;;;;;;33.85;15.30;;;;;;;2.17;100.00;102702.19;4986645;28;20120;-77
2023/02/10 03:34:08;;;;;;;46.00;17.33;;;;;;;2.18;100.00;102704.88;4988599;28;20846;-79
2023/02/10 03:36:34;;;;;;;27.00;15.43;;;;;;;2.19;100.00;102706.66;4990209;28;20042;-78
2023/02/10 03:39:05;;;;;;;34.88;16.88;;;;;;;2.24;100.00;102720.75;4974739;28;20071;-80
2023/02/10 03:41:31;;;;;;;29.05;16.40;;;;;;;2.23;100.00;102712.88;4990565;28;20057;-81
2023/02/10 03:43:58;;;;;;;30.30;17.13;;;;;;;2.23;100.00;102711.19;4968753;28;20398;-78
2023/02/10 03:46:24;;;;;;;31.60;15.35;;;;;;;2.21;100.00;102712.78;4964605;28;20054;-79
2023/02/10 03:48:51;;;;;;;28.05;15.02;;;;;;;2.24;100.00;102717.25;4992567;28;20476;-77
2023/02/10 03:51:17;;;;;;;30.60;15.38;;;;;;;2.25;100.00;102714.75;4974323;28;20046;-77
2023/02/10 03:53:44;;;;;;;25.90;14.50;;;;;;;2.26;100.00;102705.31;4976408;28;20042;-79
2023/02/10 03:56:10;;;;;;;27.20;14.23;;;;;;;2.26;100.00;102701.03;4988176;28;20047;-76
2023/02/10 03:58:37;;;;;;;35.45;15.90;;;;;;;2.29;100.00;102702.91;4989537;28;20044;-79
2023/02/10 04:01:16;;;;;;;27.85;15.73;;;;;;;2.28;100.00;102695.94;4990628;28;20714;-79
2023/02/10 04:03:43;;;;;;;32.20;14.10;;;;;;;2.28;100.00;102702.03;4986744;28;20043;-81
2023/02/10 04:06:10;;;;;;;27.17;14.15;;;;;;;2.31;100.00;102714.22;5004350;28;20365;-76
2023/02/10 04:08:37;;;;;;;26.23;13.95;;;;;;;2.36;100.00;102707.63;4974206;28;20485;-78
2023/02/10 04:11:06;;;;;;;26.48;14.25;;;;;;;2.34;100.00;102709.22;5007719;28;20054;-77
2023/02/10 04:13:32;;;;;;;32.53;15.00;;;;;;;2.33;100.00;102709.16;4966791;28;20042;-77
2023/02/10 04:16:08;;;;;;;31.80;16.40;;;;;;;2.33;100.00;102707.44;4986830;28;20073;-79
2023/02/10 04:18:35;;;;;;;24.33;13.68;;;;;;;2.34;100.00;102704.06;4995089;28;20058;-78
2023/02/10 04:21:06;;;;;;;26.25;14.00;;;;;;;2.37;100.00;102705.94;4990972;28;20074;-78
2023/02/10 04:23:32;;;;;;;27.60;14.02;;;;;;;2.38;100.00;102706.00;4999527;28;20057;-78
2023/02/10 04:25:59;;;;;;;26.30;14.02;;;;;;;2.39;100.00;102705.22;5015424;28;20121;-76
2023/02/10 04:28:27;;;;;;;26.27;14.13;;;;;;;2.37;100.00;102705.94;5004414;28;20503;-77
2023/02/10 04:30:55;;;;;;;27.85;15.32;;;;;;;2.29;100.00;102705.47;5000188;28;20075;-79
2023/02/10 04:33:24;;;;;;;33.75;16.55;;;;;;;2.23;100.00;102697.38;4997281;28;20037;-79
2023/02/10 04:35:52;;;;;;;33.10;15.65;;;;;;;2.23;100.00;102698.28;4978584;28;20054;-77
2023/02/10 04:38:19;;;;;;;34.08;14.73;;;;;;;2.23;100.00;102700.84;4988009;28;20098;-76
2023/02/10 04:40:45;;;;;;;35.38;17.60;;;;;;;2.24;100.00;102701.75;5007164;28;20572;-77
2023/02/10 04:43:13;;;;;;;33.85;14.65;;;;;;;2.25;100.00;102714.75;4992724;28;20566;-79
2023/02/10 04:45:40;;;;;;;32.33;17.88;;;;;;;2.29;100.00;102710.66;4994672;28;20093;-77
2023/02/10 04:48:07;;;;;;;30.23;15.48;;;;;;;2.28;100.00;102698.53;4995140;28;20484;-77
2023/02/10 04:50:34;;;;;;;34.20;17.30;;;;;;;2.26;100.00;102700.16;4993879;28;20101;-78
2023/02/10 04:53:00;;;;;;;35.67;18.95;;;;;;;2.24;100.00;102705.22;4975882;28;20049;-78
2023/02/10 04:55:26;;;;;;;36.30;18.58;;;;;;;2.20;100.00;102700.66;4990434;28;20039;-80
2023/02/10 04:57:53;;;;;;;32.85;17.15;;;;;;;2.17;100.00;102692.75;5005818;28;20042;-79
2023/02/10 05:00:20;;;;;;;31.58;16.08;;;;;;;2.15;100.00;102703.00;4996828;28;20046;-77
2023/02/10 05:02:46;;;;;;;31.00;17.23;;;;;;;2.15;100.00;102710.75;4974612;28;20059;-77
2023/02/10 05:05:14;;;;;;;31.67;16.35;;;;;;;2.15;100.00;102707.25;4996124;28;20045;-80
2023/02/10 05:07:40;;;;;;;34.42;17.98;;;;;;;2.16;100.00;102709.03;5003279;28;20053;-79
2023/02/10 05:10:07;;;;;;;39.08;18.65;;;;;;;2.16;100.00;102711.63;5004687;28;20049;-78
2023/02/10 05:12:33;;;;;;;38.28;16.42;;;;;;;2.18;100.00;102716.88;4994133;28;20045;-77
2023/02/10 05:15:01;;;;;;;31.73;17.85;;;;;;;2.18;100.00;102722.97;4979834;28;20042;-77
2023/02/10 05:17:27;;;;;;;31.77;17.02;;;;;;;2.17;100.00;102718.59;4989324;28;20050;-76
2023/02/10 05:19:53;;;;;;;31.35;16.88;;;;;;;2.14;100.00;102716.72;4995659;28;20046;-79
2023/02/10 05:22:22;;;;;;;33.85;18.00;;;;;;;2.12;100.00;102718.28;4986484;28;20064;-76
2023/02/10 05:24:51;;;;;;;38.75;18.80;;;;;;;2.09;100.00;102723.28;4994216;28;20077;-79
2023/02/10 05:27:18;;;;;;;35.50;18.77;;;;;;;2.07;100.00;102727.47;4993501;28;20070;-80
2023/02/10 05:29:44;;;;;;;41.50;20.33;;;;;;;2.04;100.00;102727.28;4979913;28;20054;-81
2023/02/10 05:32:11;;;;;;;31.58;17.63;;;;;;;1.98;100.00;102725.25;5004224;28;20096;-77
2023/02/10 05:34:37;;;;;;;33.58;16.58;;;;;;;1.93;100.00;102729.25;5006904;28;20041;-78
2023/02/10 05:37:04;;;;;;;28.85;16.92;;;;;;;1.91;100.00;102730.84;4995819;28;20477;-79
2023/02/10 05:39:30;;;;;;;35.03;18.27;;;;;;;1.87;100.00;102731.47;5002741;28;20038;-79
2023/02/10 05:41:59;;;;;;;38.20;17.40;;;;;;;1.88;100.00;102734.91;5010393;28;20038;-77
2023/02/10 05:44:27;;;;;;;47.97;18.75;;;;;;;1.91;100.00;102732.53;4988158;28;20050;-82
2023/02/10 05:46:54;;;;;;;34.25;16.40;;;;;;;1.88;100.00;102729.75;4996396;28;20046;-82
2023/02/10 05:49:21;;;;;;;35.80;17.33;;;;;;;1.86;100.00;102733.94;4978899;28;20042;-82
2023/02/10 05:51:48;;;;;;;37.00;17.75;;;;;;;1.82;100.00;102735.44;4991512;28;20057;-76
2023/02/10 05:54:15;;;;;;;34.50;18.55;;;;;;;1.78;100.00;102736.94;4978600;28;20107;-83
2023/02/10 05:56:41;;;;;;;37.45;19.02;;;;;;;1.75;100.00;102730.72;4977431;28;20050;-79
2023/02/10 05:59:09;;;;;;;40.13;18.27;;;;;;;1.73;100.00;102735.78;5005906;28;20039;-76
2023/02/10 06:01:36;;;;;;;41.20;19.42;;;;;;;1.68;100.00;102741.47;4991826;28;20050;-77
2023/02/10 06:04:02;;;;;;;33.88;18.10;;;;;;;1.61;100.00;102747.94;4987897;28;20049;-77
2023/02/10 06:06:29;;;;;;;45.08;18.73;;;;;;;1.48;100.00;102748.88;4990572;28;20141;-79
2023/02/10 06:08:55;;;;;;;36.90;18.30;;;;;;;1.37;100.00;102750.81;4995881;28;20048;-78
2023/02/10 06:11:21;;;;;;;33.88;17.50;;;;;;;1.24;100.00;102743.06;5009856;28;20053;-82
2023/02/10 06:13:48;;;;;;;38.00;18.92;;;;;;;1.14;100.00;102750.22;5004291;28;20072;-79
2023/02/10 06:16:14;;;;;;;44.22;20.10;;;;;;;1.12;100.00;102754.41;4987504;28;20049;-83
2023/02/10 06:18:42;;;;;;;32.38;18.27;;;;;;;1.02;100.00;102757.19;4987135;28;20110;-79
2023/02/10 06:21:09;;;;;;;43.00;20.40;;;;;;;0.97;100.00;102759.47;5009430;28;20441;-78
2023/02/10 06:23:35;;;;;;;42.97;20.17;;;;;;;0.89;100.00;102754.63;5007268;28;20469;-77
2023/02/10 06:26:02;;;;;;;42.03;19.42;;;;;;;0.90;100.00;102764.13;4994870;28;20042;-78
2023/02/10 06:28:28;;;;;;;49.75;22.38;;;;;;;0.82;100.00;102763.63;4992623;28;20055;-78
2023/02/10 06:30:55;;;;;;;42.25;20.38;;;;;;;0.78;100.00;102767.72;4976406;28;20111;-78
2023/02/10 06:33:22;;;;;;;36.90;20.35;;;;;;;0.73;100.00;102770.75;4991895;28;20046;-78
2023/02/10 06:35:48;;;;;;;50.28;20.85;;;;;;;0.69;100.00;102774.81;4999600;28;20047;-78
2023/02/10 06:38:15;;;;;;;42.95;20.98;;;;;;;0.64;100.00;102781.38;4982626;28;20548;-82
2023/02/10 06:40:42;;;;;;;40.92;20.75;;;;;;;0.57;100.00;102787.78;5001725;28;20046;-78
2023/02/10 06:43:08;;;;;;;42.92;19.85;;;;;;;0.52;100.00;102793.44;5005304;28;20049;-81
2023/02/10 06:45:35;;;;;;;40.63;21.95;;;;;;;0.45;100.00;102795.59;5005385;28;20125;-78
2023/02/10 06:48:02;;;;;;;36.88;21.17;;;;;;;0.45;100.00;102803.31;4969731;28;20050;-81
2023/02/10 06:50:29;;;;;;;43.58;21.67;;;;;;;0.45;100.00;102802.44;4987515;28;20058;-77
2023/02/10 06:52:55;;;;;;;45.53;21.20;;;;;;;0.45;100.00;102805.03;4985588;28;20038;-81
2023/02/10 06:55:22;;;;;;;48.78;22.88;;;;;;;0.51;100.00;102804.53;4987468;28;20049;-78
2023/02/10 06:57:48;;;;;;;43.55;22.58;;;;;;;0.56;100.00;102808.31;4997304;28;20421;-78
2023/02/10 07:00:16;;;;;;;45.38;21.85;;;;;;;0.57;100.00;102804.94;4993394;28;20117;-80
2023/02/10 07:02:43;;;;;;;49.30;21.67;;;;;;;0.63;100.00;102803.66;4973881;28;20045;-83
2023/02/10 07:05:11;;;;;;;45.85;21.73;;;;;;;0.67;100.00;102804.78;4975530;28;20046;-81
2023/02/10 07:07:39;;;;;;;46.88;20.90;;;;;;;0.71;100.00;102798.16;4990277;28;20444;-79
2023/02/10 07:10:06;;;;;;;47.90;22.15;;;;;;;0.82;100.00;102803.22;4988491;28;20501;-81
2023/02/10 07:12:33;;;;;;;50.20;23.52;;;;;;;0.93;100.00;102797.88;4988792;28;20094;-78
2023/02/10 07:14:59;;;;;;;42.92;22.13;;;;;;;1.08;100.00;102791.13;4979482;28;20042;-78
2023/02/10 07:17:26;;;;;;;50.28;24.33;;;;;;;1.20;100.00;102801.34;4988734;28;20375;-79
2023/02/10 07:19:52;;;;;;;45.05;24.30;;;;;;;1.30;100.00;102795.06;4984937;28;20096;-76
2023/02/10 07:22:20;;;;;;;46.53;21.98;;;;;;;1.35;100.00;102795.38;4991557;28;20049;-77
2023/02/10 07:24:47;;;;;;;48.00;22.48;;;;;;;1.36;100.00;102794.56;4984054;28;20065;-79
2023/02/10 07:27:13;;;;;;;49.35;25.02;;;;;;;1.37;100.00;102794.66;4985132;28;20488;-79
2023/02/10 07:29:39;;;;;;;44.58;21.98;;;;;;;1.38;100.00;102790.38;4990519;28;20428;-79
2023/02/10 07:32:06;;;;;;;49.00;22.35;;;;;;;1.44;100.00;102796.81;4993927;28;20030;-79
2023/02/10 07:34:33;;;;;;;49.55;21.80;;;;;;;1.43;100.00;102796.72;4986684;28;20050;-77
2023/02/10 07:37:01;;;;;;;45.78;24.15;;;;;;;1.47;100.00;102801.28;4982587;28;20043;-79
2023/02/10 07:39:27;;;;;;;45.13;21.63;;;;;;;1.49;100.00;102797.13;4987646;28;20451;-82
2023/02/10 07:41:54;;;;;;;51.15;23.73;;;;;;;1.53;100.00;102801.69;4989500;28;20074;-77
2023/02/10 07:44:21;;;;;;;55.33;23.52;;;;;;;1.54;100.00;102800.88;4986765;28;20058;-80
2023/02/10 07:46:48;;;;;;;51.00;22.38;;;;;;;1.57;100.00;102795.91;4989295;28;20038;-78
2023/02/10 07:49:15;;;;;;;44.75;21.48;;;;;;;1.60;100.00;102805.53;5004346;28;20046;-79
2023/02/10 07:51:42;;;;;;;43.35;22.00;;;;;;;1.60;100.00;102806.44;4989800;28;20125;-80
2023/02/10 07:54:09;;;;;;;47.33;23.40;;;;;;;1.74;100.00;102812.44;4988296;28;20048;-78
2023/02/10 07:56:36;;;;;;;43.38;23.23;;;;;;;1.86;100.00;102814.00;4988160;28;20114;-76
2023/02/10 07:59:02;;;;;;;45.05;23.73;;;;;;;1.93;100.00;102819.66;4985523;28;20045;-80
2023/02/10 08:01:29;;;;;;;49.08;22.23;;;;;;;1.99;100.00;102819.13;4988956;28;20799;-82
2023/02/10 08:03:56;;;;;;;53.40;24.95;;;;;;;2.04;100.00;102819.41;4989828;28;20057;-76
2023/02/10 08:06:25;;;;;;;47.97;22.40;;;;;;;2.02;100.00;102821.91;4987593;28;20449;-78
2023/02/10 08:08:52;;;;;;;51.03;23.75;;;;;;;2.02;100.00;102821.00;4988600;28;20069;-77
2023/02/10 08:11:19;;;;;;;45.83;23.65;;;;;;;2.02;100.00;102826.16;4984501;28;20126;-86
2023/02/10 08:13:46;;;;;;;45.28;22.88;;;;;;;2.02;100.00;102824.50;4980496;28;20448;-77
2023/02/10 08:16:12;;;;;;;44.17;22.15;;;;;;;1.95;100.00;102823.19;5007982;28;20361;-77
2023/02/10 08:18:39;;;;;;;43.33;23.27;;;;;;;1.90;100.00;102816.84;5007748;28;20444;-79
2023/02/10 08:21:06;;;;;;;43.17;22.02;;;;;;;1.90;100.00;102822.03;4991093;28;20034;-86
2023/02/10 08:23:33;;;;;;;51.15;23.95;;;;;;;1.94;100.00;102825.69;4994518;28;20061;-77
2023/02/10 08:26:09;;;;;;;49.92;23.15;;;;;;;1.97;100.00;102824.19;4983610;28;20053;-78
2023/02/10 08:28:39;;;;;;;41.80;23.42;;;;;;;2.02;100.00;102824.50;4990016;28;20133;-80
2023/02/10 08:31:08;;;;;;;45.65;22.27;;;;;;;2.08;100.00;102826.56;4993614;28;20039;-77
2023/02/10 08:33:37;;;;;;;47.28;24.50;;;;;;;2.10;100.00;102822.34;4972478;28;20042;-79
2023/02/10 08:36:10;;;;;;;45.70;22.92;;;;;;;2.17;100.00;102834.84;4992794;28;20139;-77
2023/02/10 08:38:36;;;;;;;40.88;21.65;;;;;;;2.22;100.00;102836.03;5003452;28;20070;-78
2023/02/10 08:41:03;;;;;;;54.53;22.58;;;;;;;2.30;100.00;102832.22;4994656;28;20054;-81
2023/02/10 08:43:31;;;;;;;46.33;23.92;;;;;;;2.39;100.00;102836.16;4991754;28;20046;-77
2023/02/10 08:45:59;;;;;;;49.65;24.02;;;;;;;2.45;100.00;102839.09;4989430;28;20068;-78
2023/02/10 08:48:27;;;;;;;43.50;23.35;;;;;;;2.56;100.00;102843.22;4997632;28;20034;-80
2023/02/10 08:50:54;;;;;;;48.92;24.73;;;;;;;2.69;100.00;102839.66;4975186;28;20142;-79
2023/02/10 08:53:21;;;;;;;52.03;22.77;;;;;;;2.80;100.00;102848.94;4974557;28;20493;-80
2023/02/10 08:56:05;;;;;;;43.17;22.55;;;;;;;2.99;100.00;102852.59;4974411;28;20525;-79
2023/02/10 08:58:31;;;;;;;38.60;22.47;;;;;;;3.19;100.00;102847.66;4979359;28;20054;-89
2023/02/10 09:00:58;;;;;;;49.92;22.65;;;;;;;3.44;100.00;102852.53;4989223;28;20046;-79
2023/02/10 09:03:24;;;;;;;47.20;21.45;;;;;;;3.69;100.00;102841.84;4998871;28;20038;-84
2023/02/10 09:05:51;;;;;;;42.42;20.73;;;;;;;3.91;100.00;102833.53;5010223;28;20050;-82
2023/02/10 09:08:19;;;;;;;40.50;21.50;;;;;;;3.99;100.00;102844.31;4999322;28;20049;-78
2023/02/10 09:10:47;;;;;;;41.55;21.17;;;;;;;4.04;100.00;102841.94;4975227;28;20042;-80
2023/02/10 09:13:27;;;;;;;42.47;21.88;;;;;;;4.05;100.00;102842.00;5004003;28;20043;-81
2023/02/10 09:16:05;;;;;;;41.28;20.95;;;;;;;4.11;100.00;102844.06;4989347;28;20520;-81
2023/02/10 09:18:38;;;;;;;54.95;24.23;;;;;;;4.05;100.00;102852.38;5001768;28;20078;-79
2023/02/10 09:21:07;;;;;;;41.35;20.85;;;;;;;3.96;100.00;102852.81;4976503;28;20200;-77
2023/02/10 09:23:38;;;;;;;38.80;21.02;;;;;;;3.87;100.00;102851.41;4989021;28;20073;-78
2023/02/10 09:26:08;;;;;;;43.05;23.33;;;;;;;3.76;100.00;102858.59;4981628;28;20137;-77
2023/02/10 09:28:35;;;;;;;47.78;23.65;;;;;;;3.70;100.00;102856.53;4974368;28;20051;-78
2023/02/10 09:31:15;;;;;;;48.97;23.83;;;;;;;3.62;100.00;102855.25;4995358;28;20088;-77
2023/02/10 09:33:45;;;;;;;46.00;25.23;;;;;;;3.56;100.00;102848.03;4988222;28;20050;-78
2023/02/10 09:36:18;;;;;;;49.97;22.80;;;;;;;3.56;100.00;102863.56;4989548;28;20129;-77
2023/02/10 09:39:44;;;;;;;42.53;20.25;;;;;;;3.54;100.00;102856.53;4974689;28;20168;-77
2023/02/10 09:42:53;;;;;;;41.92;21.45;;;;;;;3.64;100.00;102857.13;4966039;28;20377;-78
2023/02/10 09:45:26;;;;;;;44.15;21.63;;;;;;;3.92;100.00;102865.50;4984944;28;20537;-78
2023/02/10 09:48:05;;;;;;;41.50;21.47;;;;;;;4.14;100.00;102863.25;4992918;28;20053;-79
2023/02/10 09:50:45;;;;;;;49.85;21.80;;;;;;;4.43;98.74;102878.56;4975155;28;20061;-82
2023/02/10 09:53:27;;;;;;;46.03;21.77;;;;;;;4.62;97.06;102881.28;4991215;28;20096;-76
2023/02/10 09:56:02;;;;;;;41.25;20.70;;;;;;;4.87;95.23;102866.09;4994944;28;20038;-76
2023/02/10 09:58:46;;;;;;;45.00;20.55;;;;;;;4.99;94.13;102871.00;4988665;28;20465;-78
2023/02/10 10:01:22;;;;;;;45.65;20.92;;;;;;;5.03;93.12;102871.25;4983613;28;20131;-78
2023/02/10 10:04:15;;;;;;;45.85;23.30;;;;;;;4.94;93.02;102868.16;5005619;28;20093;-81
2023/02/10 10:06:47;;;;;;;45.53;21.50;;;;;;;4.85;93.67;102871.22;4998883;28;20042;-78
2023/02/10 10:09:46;;;;;;;44.50;21.88;;;;;;;4.68;94.00;102872.03;5009148;28;20073;-79
2023/02/10 10:12:19;;;;;;;42.08;23.23;;;;;;;4.39;95.64;102866.25;4988874;28;20125;-77
2023/02/10 10:14:46;;;;;;;44.67;21.00;;;;;;;4.37;96.30;102867.84;4996547;28;20047;-77
2023/02/10 10:17:30;;;;;;;54.47;21.35;;;;;;;4.35;96.29;102874.69;4979725;28;20050;-82
2023/02/10 10:20:40;;;;;;;42.65;21.23;;;;;;;4.42;96.21;102884.53;4986847;28;20046;-86
2023/02/10 10:23:37;;;;;;;49.33;22.08;;;;;;;4.50;96.05;102872.88;4997555;28;20059;-77
2023/02/10 10:26:18;;;;;;;44.97;21.83;;;;;;;4.58;94.92;102874.16;4980139;28;20058;-76
2023/02/10 10:29:39;;;;;;;47.13;20.13;;;;;;;4.69;94.73;102876.41;4995109;28;20068;-79
2023/02/10 10:32:27;;;;;;;45.42;21.05;;;;;;;4.79;93.10;102874.38;4994046;28;20073;-87
2023/02/10 10:34:56;;;;;;;49.55;22.40;;;;;;;4.88;92.75;102865.28;4986816;28;20482;-77
2023/02/10 10:37:25;;;;;;;49.53;22.80;;;;;;;4.80;93.01;102877.88;4997354;28;20155;-78
2023/02/10 10:40:01;;;;;;;47.97;22.25;;;;;;;4.89;93.43;102882.59;4995384;28;20042;-81
2023/02/10 10:42:41;;;;;;;45.40;22.08;;;;;;;4.89;92.59;102870.53;4992244;28;20068;-77
2023/02/10 10:45:30;;;;;;;45.13;22.55;;;;;;;4.79;92.35;102876.09;4991313;28;20125;-76
2023/02/10 10:48:16;;;;;;;45.38;21.73;;;;;;;4.94;91.88;102871.66;4979427;28;20050;-80
2023/02/10 10:50:42;;;;;;;44.95;23.20;;;;;;;5.09;91.01;102857.66;4985552;28;20070;-77
2023/02/10 10:53:39;;;;;;;52.85;22.38;;;;;;;5.09;90.21;102857.66;4981190;28;20481;-77
2023/02/10 10:56:50;;;;;;;47.53;23.92;;;;;;;4.88;90.81;102842.81;4981425;28;20062;-80
2023/02/10 10:59:26;;;;;;;47.42;23.38;;;;;;;4.76;91.30;102850.00;4999305;28;20054;-77
2023/02/10 11:01:52;;;;;;;52.58;23.48;;;;;;;4.72;91.99;102840.25;4990258;28;20062;-78
2023/02/10 11:04:23;;;;;;;45.42;23.35;;;;;;;4.74;91.58;102849.00;4983647;28;20043;-76
2023/02/10 11:06:54;;;;;;;49.70;21.55;;;;;;;4.67;91.44;102847.81;4986729;28;20138;-78
2023/02/10 11:09:31;;;;;;;45.65;22.15;;;;;;;4.72;91.79;102840.25;4973933;28;20038;-77
2023/02/10 11:12:16;;;;;;;48.95;23.00;;;;;;;4.77;91.76;102839.69;4990293;28;20108;-77
2023/02/10 11:14:46;;;;;;;47.03;22.55;;;;;;;4.78;91.81;102836.28;5002934;28;20046;-81
2023/02/10 11:17:36;;;;;;;54.70;24.52;;;;;;;4.85;91.18;102850.44;5009780;28;20477;-79
2023/02/10 11:20:28;;;;;;;47.13;24.50;;;;;;;4.94;91.02;102831.81;5014879;28;20061;-77
2023/02/10 11:23:01;;;;;;;51.40;23.08;;;;;;;5.08;90.48;102837.69;4982154;28;20074;-77
2023/02/10 11:25:35;;;;;;;48.10;24.30;;;;;;;5.25;89.29;102839.44;4982967;28;20038;-78
2023/02/10 11:28:06;;;;;;;48.25;24.15;;;;;;;5.45;88.46;102826.50;4994614;28;20050;-81
2023/02/10 11:30:39;;;;;;;52.22;22.90;;;;;;;5.60;87.36;102831.50;4969955;28;20374;-81
2023/02/10 11:33:20;;;;;;;47.38;23.50;;;;;;;5.69;86.63;102829.34;4988693;28;20145;-79
2023/02/10 11:35:56;;;;;;;56.80;24.70;;;;;;;5.69;86.47;102829.34;4972271;28;20116;-81